createdAt,value
2018-08-19T16:03:43.494Z,101301.92
2018-08-19T16:06:11.620Z,101306.44
2018-08-19T16:08:39.653Z,101302.56
2018-08-19T16:11:08.048Z,101303.32
2018-08-19T16:13:36.078Z,101295.20
2018-08-19T16:16:05.136Z,101304.91
2018-08-19T16:18:33.226Z,101305.95
2018-08-19T16:21:03.258Z,101292.50
2018-08-19T16:23:31.450Z,101289.42
2018-08-19T16:25:59.484Z,101291.77
2018-08-19T16:28:27.505Z,101290.16
2018-08-19T16:30:55.545Z,101288.94
2018-08-19T16:33:23.596Z,101288.13
2018-08-19T16:35:51.634Z,101286.95
2018-08-19T16:38:19.664Z,101286.55
2018-08-19T16:40:47.998Z,101281.39
2018-08-19T16:43:16.031Z,101278.76
2018-08-19T16:45:44.061Z,101280.45
2018-08-19T16:48:12.105Z,101274.29
2018-08-19T16:50:40.213Z,101280.29
2018-08-19T16:53:08.185Z,101275.39
2018-08-19T16:55:36.224Z,101280.09
2018-08-19T16:58:04.629Z,101274.25
2018-08-19T17:00:32.653Z,101275.25
2018-08-19T17:03:00.932Z,101269.64
2018-08-19T17:05:31.444Z,101274.00
2018-08-19T17:07:59.540Z,101275.77
2018-08-19T17:10:28.905Z,101276.53
2018-08-19T17:12:57.436Z,101279.09
2018-08-19T17:15:25.660Z,101282.77
2018-08-19T17:17:53.716Z,101276.87
2018-08-19T17:20:21.914Z,101281.22
2018-08-19T17:22:49.970Z,101274.27
2018-08-19T17:25:18.165Z,101275.66
2018-08-19T17:27:46.329Z,101275.38
2018-08-19T17:30:18.196Z,101273.08
2018-08-19T17:32:50.270Z,101280.63
2018-08-19T17:35:18.185Z,101281.17
2018-08-19T17:37:46.222Z,101282.06
2018-08-19T17:40:14.244Z,101279.75
2018-08-19T17:42:43.965Z,101280.45
2018-08-19T17:45:12.897Z,101280.97
2018-08-19T17:47:40.918Z,101282.31
2018-08-19T17:50:11.163Z,101284.21
2018-08-19T17:52:39.192Z,101293.72
2018-08-19T17:55:07.345Z,101284.58
2018-08-19T17:57:35.365Z,101286.41
2018-08-19T18:00:03.472Z,101276.73
2018-08-19T18:02:31.430Z,101279.41
2018-08-19T18:04:59.469Z,101280.41
2018-08-19T18:07:28.349Z,101279.26
2018-08-19T18:09:58.248Z,101285.77
2018-08-19T18:12:26.314Z,101285.47
2018-08-19T18:14:54.650Z,101280.79
2018-08-19T18:17:22.594Z,101280.13
2018-08-19T18:19:50.636Z,101282.63
2018-08-19T18:22:19.849Z,101284.33
2018-08-19T18:24:53.260Z,101287.81
2018-08-19T18:27:21.612Z,101288.66
2018-08-19T18:29:49.634Z,101288.17
2018-08-19T18:32:17.657Z,101279.03
2018-08-19T18:34:45.704Z,101282.52
2018-08-19T18:37:13.746Z,101280.87
2018-08-19T18:39:43.201Z,101284.02
2018-08-19T18:42:13.273Z,101282.20
2018-08-19T18:44:41.289Z,101285.70
2018-08-19T18:47:09.313Z,101283.53
2018-08-19T18:49:37.488Z,101280.38
2018-08-19T18:52:21.789Z,101272.88
2018-08-19T18:54:49.921Z,101282.05
2018-08-19T18:57:17.937Z,101278.70
2018-08-19T18:59:46.193Z,101261.53
2018-08-19T19:02:14.361Z,101273.55
2018-08-19T19:04:42.400Z,101273.73
2018-08-19T19:07:10.413Z,101274.69
2018-08-19T19:09:43.834Z,101275.55
2018-08-19T19:12:12.393Z,101274.89
2018-08-19T19:14:40.432Z,101272.40
2018-08-19T19:17:08.474Z,101280.05
2018-08-19T19:19:43.708Z,101274.39
2018-08-19T19:22:11.821Z,101274.23
2018-08-19T19:24:40.493Z,101269.89
2018-08-19T19:27:09.062Z,101276.73
2018-08-19T19:29:37.086Z,101273.27
2018-08-19T19:32:16.768Z,101276.24
2018-08-19T19:34:44.801Z,101276.42
2018-08-19T19:37:13.000Z,101271.58
2018-08-19T19:39:41.049Z,101276.91
2018-08-19T19:42:09.853Z,101276.42
2018-08-19T19:44:37.886Z,101273.27
2018-08-19T19:47:07.277Z,101274.25
2018-08-19T19:49:43.448Z,101266.92
2018-08-19T19:52:11.712Z,101267.59
2018-08-19T19:54:39.799Z,101263.95
2018-08-19T19:57:07.802Z,101262.77
2018-08-19T19:59:35.837Z,101264.63
2018-08-19T20:02:04.089Z,101259.44
2018-08-19T20:04:34.951Z,101251.62
2018-08-19T20:07:03.253Z,101255.30
2018-08-19T20:09:34.752Z,101255.97
2018-08-19T20:12:02.772Z,101263.30
2018-08-19T20:14:30.800Z,101265.30
2018-08-19T20:16:58.844Z,101267.11
2018-08-19T20:19:26.882Z,101266.06
2018-08-19T20:21:55.140Z,101263.27
2018-08-19T20:24:23.174Z,101262.91
2018-08-19T20:26:51.209Z,101257.94
2018-08-19T20:29:19.244Z,101256.91
2018-08-19T20:31:47.274Z,101266.59
2018-08-19T20:34:15.345Z,101266.58
2018-08-19T20:36:43.379Z,101271.91
2018-08-19T20:39:11.413Z,101272.72
2018-08-19T20:41:39.669Z,101265.56
2018-08-19T20:44:08.049Z,101262.91
2018-08-19T20:46:37.108Z,101267.06
2018-08-19T20:49:05.656Z,101264.72
2018-08-19T20:51:33.694Z,101264.57
2018-08-19T20:54:01.732Z,101266.03
2018-08-19T20:56:29.942Z,101265.53
2018-08-19T20:58:57.965Z,101274.01
2018-08-19T21:01:28.110Z,101274.53
2018-08-19T21:03:56.662Z,101281.19
2018-08-19T21:06:24.705Z,101284.17
2018-08-19T21:08:52.738Z,101280.53
2018-08-19T21:11:20.756Z,101284.00
2018-08-19T21:13:49.189Z,101278.01
2018-08-19T21:16:17.240Z,101280.52
2018-08-19T21:18:45.277Z,101280.64
2018-08-19T21:21:13.317Z,101282.14
2018-08-19T21:23:41.351Z,101282.48
2018-08-19T21:26:09.573Z,101282.29
2018-08-19T21:28:37.624Z,101289.44
2018-08-19T21:31:05.645Z,101293.91
2018-08-19T21:33:33.673Z,101299.08
2018-08-19T21:36:01.845Z,101290.43
2018-08-19T21:38:29.892Z,101292.08
2018-08-19T21:40:58.366Z,101299.39
2018-08-19T21:43:27.936Z,101291.53
2018-08-19T21:45:56.007Z,101292.84
2018-08-19T21:48:24.220Z,101294.81
2018-08-19T21:50:52.708Z,101296.59
2018-08-19T21:53:20.978Z,101294.95
2018-08-19T21:55:50.185Z,101299.08
2018-08-19T21:58:18.231Z,101293.88
2018-08-19T22:00:48.444Z,101301.87
2018-08-19T22:03:22.007Z,101301.34
2018-08-19T22:05:52.368Z,101294.66
2018-08-19T22:08:22.045Z,101296.97
2018-08-19T22:10:50.086Z,101300.28
2018-08-19T22:13:18.122Z,101297.09
2018-08-19T22:15:46.828Z,101295.73
2018-08-19T22:18:17.096Z,101301.05
2018-08-19T22:20:58.022Z,101291.69
2018-08-19T22:23:31.868Z,101295.52
2018-08-19T22:26:00.136Z,101302.66
2018-08-19T22:28:28.160Z,101298.50
2018-08-19T22:30:56.264Z,101301.64
2018-08-19T22:33:24.293Z,101303.73
2018-08-19T22:35:52.319Z,101300.55
2018-08-19T22:38:22.196Z,101298.88
2018-08-19T22:40:50.392Z,101300.53
2018-08-19T22:43:19.256Z,101302.83
2018-08-19T22:45:47.993Z,101296.16
2018-08-19T22:48:30.205Z,101307.14
2018-08-19T22:50:58.467Z,101303.83
2018-08-19T22:53:26.488Z,101305.65
2018-08-19T22:55:54.521Z,101301.44
2018-08-19T22:58:22.548Z,101305.23
2018-08-19T23:00:50.566Z,101313.84
2018-08-19T23:03:18.596Z,101314.53
2018-08-19T23:05:46.649Z,101305.23
2018-08-19T23:08:17.113Z,101311.36
2018-08-19T23:10:45.150Z,101307.02
2018-08-19T23:13:28.724Z,101308.34
2018-08-19T23:15:56.893Z,101311.00
2018-08-19T23:18:24.910Z,101309.31
2018-08-19T23:20:52.922Z,101307.95
2018-08-19T23:23:20.955Z,101311.13
2018-08-19T23:25:48.976Z,101315.40
2018-08-19T23:28:17.078Z,101312.67
2018-08-19T23:30:45.102Z,101314.48
2018-08-19T23:33:13.790Z,101314.20
2018-08-19T23:35:41.884Z,101310.05
2018-08-19T23:38:09.946Z,101309.24
2018-08-19T23:40:37.973Z,101313.84
2018-08-19T23:43:06.160Z,101316.45
2018-08-19T23:45:34.449Z,101315.00
2018-08-19T23:48:02.481Z,101318.18
2018-08-19T23:50:30.705Z,101314.00
2018-08-19T23:52:58.728Z,101317.11
2018-08-19T23:55:26.749Z,101315.09
2018-08-19T23:57:54.788Z,101308.05
